»·PEaware :: SKW5968 KPHX-KLAX

SKW5968 :: KPHX-KLAX

FLIGHT INFORMATION

Flight Status: Arrived
Operator:
SkyWest Airlines
More flights by this operator :: More flights under this callsign
Pilot: Aundrey S. (17120)
Aircraft: CANADAIR CL-600 CRJ-200
(CRJ2)
More flights by this aircraft type
Origin: KPHX Phoenix Sky Harbor Intl
United States
Destination: KLAX Los Angeles Intl
United States
More flights between these airports :: More routes between these airports
Route: KEENS2 MESSI ESTWD HLYWD1
File this flight plan on PilotEdge
Remarks:
Altitude:
(Current/Filed)
30,000ft
Speed:
(Current/Filed)
450kts
Departed: 05-May-19 06:03 PM
Arrived: 05-May-19 06:58 PM
Distance/Time
Traveled:
320nm/0:55
Distance/Time
To Go:
Arrived

Flight Plot

Page will automatically refresh every two minutes.

Flight plan parsing failed; only flown route is shown


Map Options




Map Legend


Flown Route
Filed Route
Departure Airport
Arrival Airport
Navaid (VOR, NDB)
Fix

Horizontal Profiles

Position Reports

Time Latitude Longitude Heading Altitude Ground
Speed
05-May-19 17:23 33.437420 -111.996339 269 1129ft 0kts
05-May-19 17:24 33.437420 -111.996339 269 1129ft 0kts
05-May-19 17:25 33.437420 -111.996339 269 1129ft 0kts
05-May-19 17:26 33.437420 -111.996339 269 1129ft 0kts
05-May-19 17:27 33.437420 -111.996339 269 1129ft 0kts
05-May-19 17:28 33.437420 -111.996339 269 1129ft 0kts
05-May-19 17:29 33.437420 -111.996339 269 1129ft 0kts
05-May-19 17:30 33.437420 -111.996339 269 1129ft 0kts
05-May-19 17:31 33.437420 -111.996339 269 1129ft 0kts
05-May-19 17:32 33.437420 -111.996339 269 1129ft 0kts
05-May-19 17:33 33.437420 -111.996339 269 1129ft 0kts
05-May-19 17:34 33.437420 -111.996339 269 1129ft 0kts
05-May-19 17:35 33.437420 -111.996339 269 1129ft 0kts
05-May-19 17:36 33.437420 -111.996339 269 1129ft 0kts
05-May-19 17:37 33.437420 -111.996339 269 1129ft 0kts
05-May-19 17:38 33.437420 -111.996339 269 1129ft 0kts
05-May-19 17:39 33.437420 -111.996339 269 1129ft 0kts
05-May-19 17:40 33.437420 -111.996339 269 1129ft 0kts
05-May-19 17:41 33.437420 -111.996339 269 1129ft 0kts
05-May-19 17:42 33.437420 -111.996339 269 1129ft 0kts
05-May-19 17:43 33.437420 -111.996339 269 1129ft 0kts
05-May-19 17:44 33.437420 -111.996339 269 1129ft 0kts
05-May-19 17:45 33.437420 -111.996339 269 1129ft 0kts
05-May-19 17:46 33.437421 -111.996212 269 1129ft 2kts
05-May-19 17:47 33.437074 -111.995713 351 1128ft 2kts
05-May-19 17:48 33.436994 -111.995706 359 1128ft 0kts
05-May-19 17:49 33.436994 -111.995706 359 1128ft 0kts
05-May-19 17:50 33.436994 -111.995706 359 1128ft 0kts
05-May-19 17:51 33.436994 -111.995706 359 1128ft 0kts
05-May-19 17:52 33.436994 -111.995706 359 1128ft 0kts
05-May-19 17:53 33.436994 -111.995706 359 1128ft 0kts
05-May-19 17:54 33.436994 -111.995706 359 1128ft 0kts
05-May-19 17:55 33.436994 -111.995706 359 1128ft 0kts
05-May-19 17:56 33.436994 -111.995706 359 1128ft 0kts
05-May-19 17:57 33.436994 -111.995706 359 1128ft 0kts
05-May-19 17:58 33.436996 -111.995706 359 1128ft 0kts
05-May-19 17:59 33.439493 -111.995484 21 1133ft 7kts
05-May-19 18:00 33.439845 -111.992512 49 1133ft 0kts
05-May-19 18:01 33.440355 -111.992306 357 1134ft 10kts
05-May-19 18:02 33.440930 -112.021411 271 1270ft 182kts
05-May-19 18:03 33.427597 -112.090713 246 3236ft 215kts
05-May-19 18:04 33.402651 -112.161762 246 5641ft 268kts
05-May-19 18:05 33.399120 -112.250636 276 9947ft 290kts
05-May-19 18:06 33.414163 -112.355968 277 13240ft 341kts
05-May-19 18:07 33.430800 -112.468915 277 17291ft 354kts
05-May-19 18:08 33.448081 -112.586787 275 20898ft 368kts
05-May-19 18:09 33.451579 -112.710451 267 24202ft 379kts
05-May-19 18:10 33.466202 -112.836896 286 27173ft 403kts
05-May-19 18:11 33.509838 -112.962837 287 29876ft 418kts
05-May-19 18:12 33.557303 -113.098968 288 30024ft 463kts
05-May-19 18:13 33.607124 -113.242321 288 30160ft 471kts
05-May-19 18:14 33.657360 -113.387573 288 30224ft 473kts
05-May-19 18:15 33.707599 -113.533488 288 30305ft 473kts
05-May-19 18:16 33.757680 -113.679639 287 30308ft 473kts
05-May-19 18:17 33.807749 -113.826398 287 30341ft 474kts
05-May-19 18:18 33.857522 -113.972843 287 30361ft 474kts
05-May-19 18:19 33.905593 -114.120318 278 30358ft 468kts
05-May-19 18:20 33.932289 -114.273197 277 29864ft 461kts
05-May-19 18:21 33.957724 -114.423872 277 29779ft 462kts
05-May-19 18:22 33.983121 -114.575526 277 29908ft 463kts
05-May-19 18:23 34.008482 -114.728129 276 30023ft 463kts
05-May-19 18:24 34.033575 -114.880410 276 30096ft 464kts
05-May-19 18:25 34.058521 -115.032987 276 30143ft 464kts
05-May-19 18:26 34.083408 -115.186035 276 30201ft 465kts
05-May-19 18:27 34.107999 -115.338467 276 29882ft 460kts
05-May-19 18:28 34.131999 -115.488509 276 29810ft 455kts
05-May-19 18:29 34.155994 -115.639772 276 29810ft 458kts
05-May-19 18:30 34.154117 -115.790290 259 29902ft 448kts
05-May-19 18:32 34.139653 -115.939770 259 29949ft 448kts
05-May-19 18:33 34.124985 -116.089636 259 30003ft 448kts
05-May-19 18:34 34.110143 -116.239568 259 29993ft 449kts
05-May-19 18:35 34.094849 -116.386898 259 29289ft 432kts
05-May-19 18:36 34.079577 -116.529140 259 27373ft 406kts
05-May-19 18:37 34.066774 -116.657694 259 25385ft 370kts
05-May-19 18:38 34.055480 -116.778457 260 23356ft 357kts
05-May-19 18:39 34.043590 -116.898818 258 21339ft 362kts
05-May-19 18:40 34.028228 -117.018868 258 19312ft 358kts
05-May-19 18:41 34.014146 -117.136802 259 17289ft 352kts
05-May-19 18:42 34.000516 -117.251133 259 15246ft 330kts
05-May-19 18:43 33.988050 -117.356183 259 13416ft 304kts
05-May-19 18:44 33.976308 -117.455674 258 12435ft 293kts
05-May-19 18:45 33.984005 -117.552095 277 11405ft 289kts
05-May-19 18:46 34.000373 -117.646151 279 10317ft 283kts
05-May-19 18:47 34.001039 -117.739232 261 9206ft 276kts
05-May-19 18:48 33.992641 -117.828366 261 8080ft 255kts
05-May-19 18:49 33.984715 -117.909976 262 7061ft 234kts
05-May-19 18:50 33.977339 -117.984807 262 5964ft 206kts
05-May-19 18:51 33.971051 -118.048467 262 5071ft 191kts
05-May-19 18:52 33.963760 -118.114951 261 4195ft 202kts
05-May-19 18:53 33.957998 -118.178291 263 3504ft 167kts
05-May-19 18:54 33.953107 -118.228435 262 2661ft 144kts
05-May-19 18:55 33.948162 -118.277190 262 1865ft 146kts
05-May-19 18:55 33.944077 -118.317303 262 1204ft 143kts
05-May-19 18:57 33.938386 -118.371875 261 345ft 133kts
05-May-19 18:58 33.935355 -118.404252 277 119ft 29kts
05-May-19 18:58 33.935668 -118.405546 290 121ft 0kts
05-May-19 18:59 33.935668 -118.405546 290 121ft 0kts
05-May-19 19:01 33.935668 -118.405546 290 121ft 0kts
05-May-19 19:01 33.935668 -118.405546 290 121ft 0kts
05-May-19 19:02 33.936099 -118.408526 298 123ft 13kts
05-May-19 19:03 33.938756 -118.408302 82 123ft 13kts
05-May-19 19:04 33.939382 -118.402091 83 117ft 19kts
05-May-19 19:05 33.940904 -118.398328 354 110ft 7kts
05-May-19 19:06 33.941623 -118.397823 83 110ft 3kts
05-May-19 19:07 33.941629 -118.397769 83 110ft 0kts

Navigation Log

Ident Type
Flight plan parsing failed, navigation log unavailable